Weather observations for the past three days for
Charlevoix, Charlevoix Municipal Airport
| Date | Time (edt) | Wind (mph) | Vis. (mi.) | Weather | Sky Cond. | Temperature (ºF) | Relative Humidity | Wind Chill (°F) | Heat Index (°F) | Pressure | Precipitation (in) | ||||||
|---|---|---|---|---|---|---|---|---|---|---|---|---|---|---|---|---|---|
| Air | Dwpt | 6 hour | altimeter (in) | sea level (mb) | 1 hr | 3 hr | 6 hr | ||||||||||
| Max. | Min. | ||||||||||||||||
| 02 | 02:55 | W 12 | 10.00 | Fair | CLR | 73.4 | 71.6 | 94% | 29.89 | 0.0 | |||||||
| 02 | 02:35 | W 12 | 10.00 | A Few Clouds | FEW060 | 75.2 | 71.6 | 89% | 75 | 29.88 | 0.0 | ||||||
| 02 | 02:15 | W 10 | 10.00 | A Few Clouds | FEW060 | 75.2 | 73.4 | 94% | 74 | 29.87 | 0.0 | ||||||
| 02 | 01:55 | SW 7 | 10.00 | Partly Cloudy | SCT060 | 75.2 | 73.4 | 80.6 | 73 | 94% | 74 | 29.87 | 0.0 | ||||
| 02 | 01:35 | SW 7 | 10.00 | Partly Cloudy | SCT060 | 75.2 | 73.4 | 94% | 74 | 29.87 | 0.0 | ||||||
| 02 | 01:15 | SW 7 | 10.00 | Fair | CLR | 75.2 | 73.4 | 94% | 74 | 29.86 | 0.0 | ||||||
| 02 | 00:55 | SW 6 | 10.00 | Fair | CLR | 75.2 | 73.4 | 94% | 74 | 29.87 | 0.0 | ||||||
| 02 | 00:35 | S 6 | 10.00 | Fair | CLR | 75.2 | 73.4 | 94% | 74 | 29.87 | 0.0 | ||||||
| 02 | 00:15 | S 6 | 10.00 | Fair | CLR | 75.2 | 73.4 | 94% | 74 | 29.87 | 0.0 | ||||||
| 01 | 23:55 | SW 7 | 10.00 | Fair | CLR | 75.2 | 73.4 | 94% | 74 | 29.87 | 0.0 | ||||||
| 01 | 23:35 | SW 6 | 10.00 | Fair | CLR | 75.2 | 73.4 | 94% | 74 | 29.87 | 0.0 | ||||||
| 01 | 23:15 | S 6 | 10.00 | Fair | CLR | 75.2 | 73.4 | 94% | 74 | 29.88 | 0.0 | ||||||
| 01 | 22:55 | S 5 | 10.00 | Fair | CLR | 73.4 | 71.6 | 94% | 29.88 | 0.0 | |||||||
| 01 | 22:35 | S 2 | 9.00 | Fair | CLR | 73.4 | 71.6 | 94% | 29.88 | 0.0 | |||||||
| 01 | 22:15 | S 3 | 7.00 | Fair | CLR | 73.4 | 73.4 | 100% | 29.88 | 0.0 | |||||||
| 01 | 21:55 | SW 3 | 8.00 | Fair | CLR | 73.4 | 73.4 | 100% | 29.88 | 0.0 | |||||||
| 01 | 21:35 | SW 5 | 10.00 | Fair | CLR | 73.4 | 73.4 | 100% | 29.88 | 0.0 | |||||||
| 01 | 21:15 | W 6 | 10.00 | Fair | CLR | 75.2 | 73.4 | 94% | 74 | 29.88 | 0.0 | ||||||
| 01 | 20:55 | W 3 | 10.00 | Fair | CLR | 75.2 | 71.6 | 89% | 75 | 29.88 | 0.0 | ||||||
| 01 | 20:35 | W 5 | 10.00 | Fair | CLR | 77 | 71.6 | 83% | 78 | 29.88 | 0.0 | ||||||
| 01 | 20:15 | SW 3 | 10.00 | Fair | CLR | 78.8 | 71.6 | 79% | 82 | 29.88 | 0.0 | ||||||
| 01 | 19:55 | SW 5 | 10.00 | Fair | CLR | 80.6 | 71.6 | 86.2 | 78.3 | 74% | 85 | 29.87 | 0.0 | ||||
| 01 | 19:35 | SW 5 | 10.00 | Fair | CLR | 82.4 | 71.6 | 70% | 87 | 29.87 | 0.0 | ||||||
| 01 | 19:15 | S 5 | 10.00 | Fair | CLR | 84.2 | 71.6 | 66% | 90 | 29.87 | 0.0 | ||||||
| 01 | 18:55 | SW 7 | 10.00 | Fair | CLR | 84.2 | 71.6 | 66% | 90 | 29.88 | 0.0 | ||||||
| 01 | 18:35 | SW 8 | 10.00 | Fair | CLR | 86 | 71.6 | 62% | 92 | 29.88 | 0.0 | ||||||
| 01 | 18:15 | W 5 | 10.00 | Fair | CLR | 86 | 73.4 | 66% | 93 | 29.88 | 0.0 | ||||||
| 01 | 17:55 | W 8 | 10.00 | Fair | CLR | 84.2 | 71.6 | 66% | 90 | 29.88 | 0.0 | ||||||
| 01 | 17:15 | NW 7 | 10.00 | Fair | CLR | 84.2 | 71.6 | 66% | 90 | 29.88 | 0.0 | ||||||
| 01 | 16:55 | NW 7 | 10.00 | Fair | CLR | 84.2 | 69.8 | 62% | 88 | 29.89 | 0.0 | ||||||
| 01 | 16:35 | NW 7 | 10.00 | Fair | CLR | 84.2 | 71.6 | 66% | 90 | 29.89 | 0.0 | ||||||
| 01 | 16:15 | N 5 | 10.00 | Fair | CLR | 82.4 | 71.6 | 70% | 87 | 29.9 | 0.0 | ||||||
| 01 | 15:55 | NW 6 | 10.00 | Fair | CLR | 82.4 | 73.4 | 74% | 88 | 29.9 | 0.0 | ||||||
| 01 | 15:35 | NW 7 | 10.00 | Fair | CLR | 80.6 | 73.4 | 79% | 85 | 29.91 | 0.0 | ||||||
| 01 | 15:15 | N 8 | 10.00 | Fair | CLR | 80.6 | 73.4 | 79% | 85 | 29.92 | 0.0 | ||||||
| 01 | 14:55 | N 8 | 10.00 | Fair | CLR | 80.6 | 73.4 | 79% | 85 | 29.92 | 0.0 | ||||||
| 01 | 14:35 | N 6 | 10.00 | Fair | CLR | 78.8 | 73.4 | 84% | 82 | 29.93 | 0.0 | ||||||
| 01 | 14:15 | N 7 | 10.00 | A Few Clouds | FEW027 | 78.8 | 73.4 | 84% | 82 | 29.93 | 0.0 | ||||||
| 01 | 13:55 | NW 7 | 10.00 | A Few Clouds | FEW027 | 78.8 | 73.4 | 80.8 | 66.9 | 84% | 82 | 29.94 | 0.0 | ||||
| 01 | 13:35 | N 8 | 10.00 | Fair | CLR | 78.8 | 73.4 | 84% | 82 | 29.94 | 0.0 | ||||||
| 01 | 13:15 | NW 7 | 10.00 | A Few Clouds | FEW023 | 80.6 | 73.4 | 79% | 85 | 29.94 | 0.0 | ||||||
| 01 | 12:55 | Vrbl 6 | 10.00 | Partly Cloudy | SCT021 | 78.8 | 73.4 | 84% | 82 | 29.94 | 0.0 | ||||||
| 01 | 12:35 | N 6 | 10.00 | Mostly Cloudy | BKN017 | 78.8 | 73.4 | 84% | 82 | 29.94 | 0.0 | ||||||
| 01 | 12:15 | E 5 | 10.00 | Partly Cloudy | SCT015 | 78.8 | 71.6 | 79% | 82 | 29.94 | 0.0 | ||||||
| 01 | 11:55 | S 6 | 10.00 | Mostly Cloudy | BKN011 | 77 | 71.6 | 83% | 78 | 29.94 | 0.0 | ||||||
| 01 | 11:35 | Vrbl 5 | 10.00 | Mostly Cloudy | BKN009 | 77 | 73.4 | 89% | 78 | 29.94 | 0.0 | ||||||
| 01 | 11:15 | SE 7 | 10.00 | Mostly Cloudy | BKN011 | 75.2 | 71.6 | 89% | 75 | 29.94 | 0.0 | ||||||
| 01 | 10:55 | E 5 | 10.00 | Overcast | OVC011 | 73.4 | 71.6 | 94% | 29.95 | 0.0 | |||||||
| 01 | 10:35 | E 6 | 10.00 | Overcast | OVC011 | 73.4 | 69.8 | 89% | 29.95 | 0.0 | |||||||
| 01 | 10:15 | E 5 | 10.00 | Mostly Cloudy | BKN009 | 73.4 | 71.6 | 94% | 29.94 | 0.0 | |||||||
| 01 | 09:55 | SE 6 | 10.00 | Mostly Cloudy | BKN009 | 73.4 | 71.6 | 94% | 29.93 | 0.0 | |||||||
| 01 | 09:35 | SE 6 | 7.00 | Overcast | OVC011 | 71.6 | 71.6 | 100% | 29.93 | 0.0 | |||||||
| 01 | 09:15 | SE 3 | 5.00 | Fog/Mist | OVC011 | 71.6 | 69.8 | 94% | 29.94 | 0.0 | |||||||
| 01 | 08:55 | Vrbl 1 | 5.00 | Fog/Mist | BKN011 OVC021 | 69.8 | 69.8 | 100% | 29.94 | 0.0 | |||||||
| 01 | 08:35 | S 3 | 3.00 | Fog/Mist | BKN011 BKN021 | 69.8 | 69.8 | 100% | 29.93 | 0.0 | |||||||
| 01 | 08:15 | S 5 | 0.15 | Fog | BKN011 | 68 | 68 | 100% | 29.93 | 0.0 | |||||||
| 01 | 07:55 | S 1 | 0.15 | Fog | VV000 | 68 | 68 | 69.3 | 65.7 | 100% | 29.93 | 0.0 | |||||
| 01 | 07:35 | E 1 | 0.15 | Fog | VV000 | 66.2 | 66.2 | 100% | 29.92 | 0.0 | |||||||
| 01 | 07:15 | S 3 | 0.15 | Fog | VV000 | 66.2 | 66.2 | 100% | 29.91 | 0.0 | |||||||
| 01 | 06:55 | E 1 | 5.00 | Fog/Mist | CLR | 66.2 | 66.2 | 100% | 29.91 | 0.0 | |||||||
| 01 | 06:35 | NE 2 | 1.25 | Fog/Mist | SCT001 BKN120 | 66.2 | 66.2 | 100% | 29.9 | 0.0 | |||||||
| 01 | 06:15 | E 1 | 6.00 | Fog/Mist | BKN120 | 66.2 | 66.2 | 100% | 29.91 | 0.0 | |||||||
| 01 | 05:55 | E 1 | 5.00 | Fog/Mist | SCT120 | 68 | 66.2 | 94% | 29.91 | 0.0 | |||||||
| 01 | 05:35 | S 3 | 5.00 | Fog/Mist | BKN120 | 66.2 | 66.2 | 100% | 29.91 | 0.0 | |||||||
| 01 | 05:15 | SW 1 | 3.00 | Fog/Mist | BKN110 | 66.2 | 66.2 | 100% | 29.91 | 0.0 | |||||||
| 01 | 04:55 | E 1 | 6.00 | Fog/Mist | SCT110 | 68 | 66.2 | 94% | 29.9 | 0.0 | |||||||
| 01 | 04:35 | SE 2 | 3.00 | Fog/Mist | SCT110 | 68 | 66.2 | 94% | 29.9 | 0.0 | |||||||
| 01 | 04:15 | S 2 | 5.00 | Fog/Mist | CLR | 68 | 68 | 100% | 29.9 | 0.0 | |||||||
| 01 | 03:55 | E 1 | 5.00 | Fog/Mist | FEW120 | 68 | 68 | 100% | 29.89 | 0.0 | |||||||
| 01 | 03:35 | N 1 | 3.00 | Fog/Mist | SCT120 | 68 | 68 | 100% | 29.89 | 0.0 | |||||||
| 01 | 03:15 | S 1 | 6.00 | Fog/Mist | BKN120 | 69.8 | 68 | 94% | 29.89 | 0.0 | |||||||
| 01 | 02:55 | Vrbl 1 | 3.00 | Fog/Mist | SCT120 | 68 | 68 | 100% | 29.89 | 0.0 | |||||||
| 01 | 02:35 | SW 1 | 5.00 | Fog/Mist | CLR | 68 | 68 | 100% | 29.89 | 0.0 | |||||||
| 01 | 02:15 | W 5 | 5.00 | Fog/Mist | CLR | 69.8 | 68 | 94% | 29.89 | 0.0 | |||||||
| 01 | 01:55 | W 2 | 4.00 | Fog/Mist | CLR | 69.8 | 68 | 73.8 | 69.1 | 94% | 29.89 | 0.0 | |||||
| 01 | 01:35 | W 6 | 6.00 | Fog/Mist | CLR | 69.8 | 68 | 94% | 29.89 | 0.0 | |||||||
| 01 | 01:15 | NW 6 | 9.00 | Fair | CLR | 69.8 | 69.8 | 100% | 29.89 | 0.0 | |||||||
| 01 | 00:55 | W 6 | 10.00 | Fair | CLR | 71.6 | 69.8 | 94% | 29.89 | 0.0 | |||||||
| 01 | 00:35 | W 6 | 10.00 | A Few Clouds | FEW030 | 71.6 | 69.8 | 94% | 29.88 | 0.0 | |||||||
| 01 | 00:15 | W 8 | 10.00 | Mostly Cloudy | BKN030 | 73.4 | 69.8 | 89% | 29.89 | 0.0 | |||||||
| 31 | 23:55 | W 7 | 10.00 | Partly Cloudy | FEW032 SCT041 | 73.4 | 69.8 | 89% | 29.89 | 0.0 | |||||||
| 31 | 23:35 | W 6 | 10.00 | Partly Cloudy | SCT039 | 73.4 | 69.8 | 89% | 29.89 | 0.0 | |||||||
| 31 | 23:15 | SW 10 | 10.00 | Mostly Cloudy | BKN029 BKN037 | 73.4 | 69.8 | 89% | 29.88 | 0.0 | |||||||
| 31 | 22:55 | SW 7 | 10.00 | Overcast | OVC027 | 73.4 | 69.8 | 89% | 29.88 | 0.0 | |||||||
| 31 | 22:35 | W 8 | 10.00 | Overcast | OVC027 | 73.4 | 69.8 | 89% | 29.89 | 0.0 | |||||||
| 31 | 22:15 | W 12 | 10.00 | Overcast | OVC027 | 73.4 | 69.8 | 89% | 29.89 | 0.0 | |||||||
| 31 | 21:55 | W 12 | 10.00 | Overcast | OVC027 | 73.4 | 69.8 | 89% | 29.89 | 0.0 | |||||||
| 31 | 21:35 | W 10 | 10.00 | Overcast | OVC029 | 73.4 | 69.8 | 89% | 29.88 | 0.0 | |||||||
| 31 | 21:15 | W 9 | 10.00 | Mostly Cloudy | BKN031 | 73.4 | 69.8 | 89% | 29.88 | 0.0 | |||||||
| 31 | 20:55 | W 7 | 10.00 | Partly Cloudy | SCT031 | 73.4 | 69.8 | 89% | 29.87 | 0.0 | |||||||
| 31 | 20:35 | SW 5 | 10.00 | Partly Cloudy | SCT033 | 73.4 | 69.8 | 89% | 29.87 | 0.0 | |||||||
| 31 | 20:15 | W 5 | 10.00 | Overcast | OVC035 | 73.4 | 69.8 | 89% | 29.87 | 0.0 | |||||||
| 31 | 19:55 | W 5 | 10.00 | Mostly Cloudy | BKN037 | 73.4 | 69.8 | 84.2 | 73.2 | 89% | 29.87 | 0.0 | |||||
| 31 | 19:35 | W 8 | 10.00 | Mostly Cloudy | BKN039 BKN049 | 73.4 | 68 | 83% | 29.87 | 0.0 | |||||||
| 31 | 19:15 | W 10 | 10.00 | A Few Clouds | FEW049 | 77 | 69.8 | 79% | 79 | 29.86 | 0.0 | ||||||
| 31 | 18:55 | W 8 | 10.00 | A Few Clouds | FEW055 | 77 | 69.8 | 79% | 79 | 29.85 | 0.0 | ||||||
| 31 | 18:35 | W 9 | 10.00 | A Few Clouds | FEW055 | 75.2 | 69.8 | 83% | 75 | 29.85 | 0.0 | ||||||
| 31 | 18:15 | W 12 | 10.00 | A Few Clouds | FEW055 | 77 | 69.8 | 79% | 79 | 29.85 | 0.0 | ||||||
| 31 | 17:55 | W 10 | 10.00 | Fair | CLR | 78.8 | 69.8 | 74% | 81 | 29.85 | 0.0 | ||||||
| 31 | 17:35 | W 12 | 10.00 | A Few Clouds | FEW060 | 77 | 68 | 74% | 79 | 29.85 | 0.0 | ||||||
| 31 | 17:15 | W 12 | 10.00 | A Few Clouds | FEW033 | 77 | 69.8 | 79% | 79 | 29.85 | 0.0 | ||||||
| 31 | 16:55 | W 12 | 10.00 | Overcast | OVC033 | 78.8 | 69.8 | 74% | 81 | 29.85 | 0.0 | ||||||
| 31 | 16:35 | SW 5 | 10.00 | Overcast | OVC033 | 82.4 | 71.6 | 70% | 87 | 29.84 | 0.0 | ||||||
| 31 | 16:15 | S 5 | 10.00 | Overcast | OVC033 | 82.4 | 71.6 | 70% | 87 | 29.85 | 0.0 | ||||||
| 31 | 15:55 | SW 7 | 10.00 | Overcast | SCT030 OVC037 | 82.4 | 69.8 | 66% | 86 | 29.86 | 0.0 | ||||||
| 31 | 15:35 | Vrbl 5 | 10.00 | Overcast | BKN037 OVC080 | 82.4 | 69.8 | 66% | 86 | 29.87 | 0.0 | ||||||
| 31 | 15:15 | SW 10 G 17 | 10.00 | Mostly Cloudy | BKN080 | 82.4 | 69.8 | 66% | 86 | 29.87 | 0.0 | ||||||
| 31 | 14:55 | SW 13 G 16 | 10.00 | Overcast | OVC080 | 82.4 | 69.8 | 66% | 86 | 29.87 | 0.0 | ||||||
| 31 | 14:35 | S 12 G 18 | 10.00 | Overcast | FEW030 OVC070 | 82.4 | 69.8 | 66% | 86 | 29.88 | 0.0 | ||||||
| 31 | 14:15 | S 10 | 10.00 | Mostly Cloudy | FEW030 BKN070 | 82.4 | 69.8 | 66% | 86 | 29.88 | 0.0 | ||||||
| 31 | 13:55 | S 8 | 10.00 | Partly Cloudy | FEW030 SCT070 | 82.4 | 69.8 | 82.9 | 68.2 | 66% | 86 | 29.87 | 0.0 | ||||
| 31 | 13:35 | SW 7 | 10.00 | Mostly Cloudy | BKN070 BKN085 | 80.6 | 69.8 | 70% | 84 | 29.88 | 0.0 | ||||||
| 31 | 13:15 | S 8 | 10.00 | Mostly Cloudy | BKN070 BKN085 | 80.6 | 69.8 | 70% | 84 | 29.88 | 0.0 | ||||||
| 31 | 12:55 | Vrbl 7 | 10.00 | Fair | CLR | 80.6 | 69.8 | 70% | 84 | 29.88 | 0.0 | ||||||
| 31 | 12:35 | Vrbl 6 | 10.00 | Fair | CLR | 78.8 | 69.8 | 74% | 81 | 29.89 | 0.0 | ||||||
| 31 | 12:15 | SE 9 | 10.00 | Fair | CLR | 78.8 | 71.6 | 79% | 82 | 29.89 | 0.0 | ||||||
| 31 | 11:55 | S 8 | 10.00 | A Few Clouds | FEW007 FEW012 | 75.2 | 71.6 | 89% | 75 | 29.9 | 0.0 | ||||||
| 31 | 11:35 | E 8 | 10.00 | Mostly Cloudy | BKN005 BKN012 | 73.4 | 71.6 | 94% | 29.91 | 0.0 | |||||||
| 31 | 11:15 | E 9 | 10.00 | Mostly Cloudy | BKN007 | 71.6 | 69.8 | 94% | 29.91 | 0.0 | |||||||
| 31 | 10:55 | E 7 | 10.00 | Light Rain | BKN007 BKN046 BKN120 | 69.8 | 69.8 | 100% | 29.91 | 0.0 | 0.01 | ||||||
| 31 | 10:35 | Vrbl 2 | 10.00 | Light Rain | SCT050 SCT070 BKN085 | 69.8 | 69.8 | 100% | 29.93 | 0.0 | |||||||
| 31 | 10:15 | S 6 | 10.00 | Light Rain | BKN006 BKN055 OVC065 | 69.8 | 69.8 | 100% | 29.94 | 0.0 | |||||||
| 31 | 09:55 | Vrbl 7 | 6.00 | Light Rain Fog/Mist | OVC006 | 69.8 | 69.8 | 100% | 29.95 | 0.0 | 0.06 | ||||||
| 31 | 09:35 | S 6 | 6.00 | Light Rain Fog/Mist | BKN006 BKN022 OVC047 | 69.8 | 69.8 | 100% | 29.95 | 0.0 | |||||||
| 31 | 09:15 | S 6 | 4.00 | Light Rain Fog/Mist | BKN004 BKN024 OVC060 | 69.8 | 69.8 | 100% | 29.96 | 0.0 | |||||||
| 31 | 08:55 | Vrbl 5 | 2.00 | Rain Fog/Mist | SCT006 BKN060 OVC070 | 69.8 | 68 | 94% | 29.95 | 0.0 | 0.2 | ||||||
| 31 | 08:35 | SW 7 | 3.00 | Rain Fog/Mist | SCT024 BKN070 BKN080 | 68 | 68 | 100% | 29.95 | 0.0 | |||||||
| 31 | 08:15 | Vrbl 1 | 4.00 | Light Rain Fog/Mist | SCT080 OVC110 | 68 | 68 | 100% | 29.94 | 0.0 | |||||||
| 31 | 07:55 | S 6 | 4.00 | Light Rain Fog/Mist | SCT080 OVC110 | 68 | 68 | 69.1 | 67.6 | 100% | 29.92 | 0.0 | 0.03 | ||||
| 31 | 07:35 | SE 8 | 4.00 | Light Rain Fog/Mist | FEW003 FEW007 OVC110 | 68 | 68 | 100% | 29.91 | 0.0 | |||||||
| 31 | 07:15 | SE 8 | 4.00 | Fog/Mist | SCT003 OVC110 | 68 | 68 | 100% | 29.9 | 0.0 | |||||||
| 31 | 06:55 | SE 6 | 5.00 | Fog/Mist | OVC003 | 68 | 68 | 100% | 29.91 | 0.0 | |||||||
| 31 | 06:35 | SE 7 | 5.00 | Fog/Mist | OVC003 | 68 | 68 | 100% | 29.91 | 0.0 | |||||||
| 31 | 06:15 | SE 7 | 5.00 | Fog/Mist | BKN003 BKN006 OVC010 | 68 | 68 | 100% | 29.94 | 0.0 | |||||||
| 31 | 05:55 | SE 7 | 5.00 | Light Rain Fog/Mist | SCT003 BKN009 OVC075 | 68 | 68 | 100% | 29.94 | 0.0 | 0.06 | ||||||
| 31 | 05:35 | SE 7 | 4.00 | Light Rain Fog/Mist | BKN010 BKN038 OVC090 | 68 | 68 | 100% | 29.95 | 0.0 | |||||||
| 31 | 05:15 | SE 3 | 4.00 | Light Rain Fog/Mist | SCT009 BKN012 OVC070 | 68 | 68 | 100% | 29.96 | 0.0 | |||||||
| 31 | 04:55 | E 1 | 4.00 | Light Rain Fog/Mist | BKN017 BKN045 BKN100 | 68 | 68 | 100% | 29.97 | 0.0 | 0.02 | ||||||
| 31 | 04:35 | S 2 | 8.00 | Light Rain | SCT015 BKN045 BKN070 | 68 | 68 | 100% | 29.96 | 0.0 | |||||||
| 31 | 04:15 | E 5 | 10.00 | Mostly Cloudy | FEW029 SCT044 BKN120 | 68 | 68 | 100% | 29.95 | 0.0 | |||||||
| 31 | 03:55 | E 5 | 10.00 | Overcast | FEW016 SCT029 OVC044 | 68 | 68 | 100% | 29.96 | 0.0 | |||||||
| 31 | 03:35 | SE 1 | 10.00 | Overcast | SCT018 OVC046 | 68 | 68 | 100% | 29.97 | 0.0 | |||||||
| 31 | 03:15 | Vrbl 2 | 10.00 | Mostly Cloudy | BKN048 | 68 | 68 | 100% | 29.96 | 0.0 | |||||||
| 31 | 02:55 | E 7 | 10.00 | Fair | CLR | 68 | 68 | 100% | 29.94 | 0.0 | |||||||
| 31 | 02:35 | E 8 | 10.00 | A Few Clouds | FEW055 | 68 | 68 | 100% | 29.94 | 0.0 | |||||||
| 31 | 02:15 | E 6 | 10.00 | Fair | CLR | 69.8 | 68 | 94% | 29.95 | 0.0 | |||||||
| 31 | 01:55 | SE 5 | 10.00 | Partly Cloudy | SCT042 SCT070 | 69.8 | 68 | 70.3 | 69.1 | 94% | 29.96 | 0.0 | |||||
| 31 | 01:35 | SE 5 | 10.00 | Overcast | OVC042 | 69.8 | 68 | 94% | 29.96 | 0.0 | |||||||
| 31 | 01:15 | SE 7 | 10.00 | Overcast | BKN042 BKN050 OVC075 | 69.8 | 68 | 94% | 29.95 | 0.0 | |||||||
| 31 | 00:55 | E 9 | 10.00 | Overcast | SCT042 OVC050 | 69.8 | 68 | 94% | 29.96 | 0.0 | |||||||
| 31 | 00:35 | E 8 | 10.00 | Overcast | FEW039 OVC049 | 69.8 | 68 | 94% | 29.96 | 0.0 | |||||||
| 31 | 00:15 | SE 9 | 10.00 | Overcast | OVC039 | 69.8 | 68 | 94% | 29.96 | 0.0 | |||||||
| 30 | 23:55 | SE 7 | 10.00 | Overcast | OVC035 | 69.8 | 68 | 94% | 29.96 | 0.0 | |||||||
| 30 | 23:35 | E 7 | 10.00 | Overcast | BKN037 BKN045 OVC050 | 69.8 | 68 | 94% | 29.97 | 0.0 | |||||||
| 30 | 23:15 | SE 6 | 6.00 | Fog/Mist | BKN028 BKN039 OVC050 | 69.8 | 68 | 94% | 29.96 | 0.0 | |||||||
| 30 | 22:55 | E 7 | 10.00 | Overcast | OVC028 | 69.8 | 68 | 94% | 29.97 | 0.0 | |||||||
| 30 | 22:35 | SE 6 | 10.00 | Overcast | OVC028 | 69.8 | 68 | 94% | 29.97 | 0.0 | |||||||
| 30 | 22:15 | SE 8 | 10.00 | Overcast | OVC028 | 69.8 | 68 | 94% | 29.97 | 0.0 | |||||||
| 30 | 21:55 | SE 8 | 10.00 | Overcast | OVC028 | 69.8 | 68 | 94% | 29.97 | 0.0 | |||||||
| 30 | 21:35 | E 8 | 10.00 | Overcast | FEW016 OVC028 | 69.8 | 68 | 94% | 29.96 | 0.0 | |||||||
| 30 | 21:15 | E 7 | 10.00 | Overcast | OVC028 | 69.8 | 68 | 94% | 29.95 | 0.0 | |||||||
| 30 | 20:55 | E 6 | 10.00 | Overcast | OVC030 | 69.8 | 68 | 94% | 29.96 | 0.0 | |||||||
| 30 | 20:35 | E 6 | 10.00 | Overcast | SCT009 OVC030 | 69.8 | 68 | 94% | 29.95 | 0.0 | |||||||
| 30 | 20:15 | E 8 | 10.00 | Overcast | BKN009 OVC032 | 69.8 | 68 | 94% | 29.95 | 0.0 | |||||||
| 30 | 19:55 | E 7 | 10.00 | Overcast | OVC034 | 69.8 | 68 | 73.6 | 70.3 | 94% | 29.95 | 0.0 | |||||
| 30 | 19:35 | E 5 | 10.00 | Overcast | OVC034 | 69.8 | 68 | 94% | 29.95 | 0.0 | |||||||
| 30 | 19:15 | E 6 | 10.00 | Overcast | OVC036 | 69.8 | 68 | 94% | 29.95 | 0.0 | |||||||
| 30 | 18:55 | E 7 | 10.00 | Mostly Cloudy | BKN037 BKN055 | 69.8 | 68 | 94% | 29.95 | 0.0 | |||||||
| 30 | 18:35 | E 9 | 10.00 | Overcast | OVC037 | 69.8 | 68 | 94% | 29.95 | 0.0 | |||||||
| 30 | 18:15 | NE 8 | 10.00 | Overcast | OVC037 | 71.6 | 68 | 88% | 29.96 | 0.0 | |||||||
| 30 | 17:55 | E 3 | 10.00 | Light Rain | OVC037 | 71.6 | 68 | 88% | 29.96 | 0.0 | |||||||
| 30 | 17:35 | E 6 | 10.00 | Overcast | OVC039 | 71.6 | 66.2 | 83% | 29.95 | 0.0 | |||||||
| 30 | 17:15 | NE 3 | 10.00 | Overcast | BKN039 OVC045 | 71.6 | 66.2 | 83% | 29.97 | 0.0 | |||||||
| 30 | 16:55 | E 7 | 10.00 | Overcast | BKN038 OVC046 | 71.6 | 66.2 | 83% | 29.96 | 0.0 | |||||||
| 30 | 16:35 | E 6 | 10.00 | Overcast | FEW027 OVC040 | 71.6 | 66.2 | 83% | 29.96 | 0.0 | |||||||
| 30 | 16:15 | E 7 | 10.00 | Overcast | BKN027 OVC042 | 71.6 | 66.2 | 83% | 29.95 | 0.0 | |||||||
| 30 | 15:55 | E 7 | 10.00 | Overcast | OVC027 | 71.6 | 66.2 | 83% | 29.96 | 0.0 | |||||||
| 30 | 15:35 | E 7 | 10.00 | Overcast | BKN029 OVC047 | 71.6 | 66.2 | 83% | 29.96 | 0.0 | |||||||
| 30 | 15:15 | SE 5 | 10.00 | Overcast | OVC031 | 71.6 | 66.2 | 83% | 29.96 | 0.0 | |||||||
| 30 | 14:55 | SE 6 | 10.00 | Overcast | OVC031 | 71.6 | 66.2 | 83% | 29.95 | 0.0 | |||||||
| 30 | 14:35 | S 6 | 10.00 | Overcast | OVC029 | 71.6 | 66.2 | 83% | 29.96 | 0.0 | |||||||
| 30 | 14:15 | SE 6 | 10.00 | Overcast | FEW015 OVC029 | 73.4 | 66.2 | 78% | 29.96 | 0.0 | |||||||
| 30 | 13:55 | S 6 | 10.00 | Overcast | FEW015 OVC027 | 73.4 | 66.2 | 73.9 | 64.8 | 78% | 29.96 | 0.0 | |||||
| 30 | 13:35 | Vrbl 3 | 10.00 | Overcast | FEW017 OVC027 | 73.4 | 66.2 | 78% | 29.96 | 0.0 | |||||||
| 30 | 13:15 | S 6 | 10.00 | Overcast | FEW015 OVC027 | 71.6 | 66.2 | 83% | 29.96 | 0.0 | |||||||
| 30 | 12:55 | Vrbl 6 | 10.00 | Overcast | FEW015 OVC027 | 71.6 | 66.2 | 83% | 29.96 | 0.0 | |||||||
| 30 | 12:35 | S 7 | 10.00 | Overcast | OVC027 | 71.6 | 66.2 | 83% | 29.96 | 0.0 | |||||||
| 30 | 12:15 | SW 6 | 10.00 | Overcast | OVC031 | 71.6 | 66.2 | 83% | 29.96 | 0.0 | |||||||
| 30 | 11:55 | Vrbl 5 | 10.00 | Overcast | OVC031 | 71.6 | 66.2 | 83% | 29.97 | 0.0 | |||||||
| 30 | 11:35 | S 7 | 10.00 | Overcast | OVC029 | 69.8 | 64.4 | 83% | 29.97 | 0.0 | |||||||
| 30 | 11:15 | SE 7 | 10.00 | Overcast | OVC031 | 68 | 64.4 | 88% | 29.97 | 0.0 | |||||||
| 30 | 10:55 | S 8 | 10.00 | Overcast | OVC033 | 68 | 64.4 | 88% | 29.97 | 0.0 | |||||||
| 30 | 10:35 | S 6 | 10.00 | Overcast | OVC033 | 68 | 64.4 | 88% | 29.96 | 0.0 | |||||||
| 30 | 10:15 | S 7 | 10.00 | Overcast | OVC031 | 68 | 64.4 | 88% | 29.97 | 0.0 | |||||||
| 30 | 09:55 | SE 6 | 10.00 | Overcast | OVC029 | 66.2 | 64.4 | 94% | 29.97 | 0.0 | |||||||
| 30 | 09:35 | SE 6 | 10.00 | Overcast | OVC029 | 66.2 | 64.4 | 94% | 29.96 | 0.0 | |||||||
| 30 | 09:15 | SE 5 | 10.00 | Overcast | OVC029 | 66.2 | 62.6 | 88% | 29.96 | 0.0 | |||||||
| 30 | 08:55 | SE 5 | 10.00 | Overcast | OVC031 | 66.2 | 62.6 | 88% | 29.96 | 0.0 | |||||||
| 30 | 08:35 | SE 5 | 10.00 | Overcast | OVC029 | 64.4 | 62.6 | 94% | 29.96 | 0.0 | |||||||
| 30 | 08:15 | SE 6 | 10.00 | Overcast | OVC031 | 64.4 | 62.6 | 94% | 29.96 | 0.0 | |||||||
| 30 | 07:35 | SE 7 | 10.00 | Overcast | OVC031 | 64.4 | 62.6 | 94% | 29.95 | 0.0 | |||||||
| 30 | 07:15 | SE 8 | 10.00 | Overcast | OVC029 | 64.4 | 62.6 | 94% | 29.95 | 0.0 | |||||||
| 30 | 06:55 | SE 7 | 10.00 | Overcast | BKN031 OVC039 | 64.4 | 62.6 | 94% | 29.95 | 0.0 | |||||||
| 30 | 06:35 | SE 6 | 10.00 | Overcast | BKN033 OVC039 | 64.4 | 62.6 | 94% | 29.95 | 0.0 | |||||||
| 30 | 06:15 | SE 7 | 10.00 | Overcast | BKN036 OVC042 | 64.4 | 62.6 | 94% | 29.95 | 0.0 | |||||||
| 30 | 05:55 | Vrbl 5 | 10.00 | Overcast | OVC038 | 64.4 | 62.6 | 94% | 29.96 | 0.0 | |||||||
| 30 | 05:35 | SE 8 | 10.00 | Overcast | OVC038 | 64.4 | 62.6 | 94% | 29.96 | 0.0 | |||||||
| 30 | 05:15 | SE 8 | 10.00 | Overcast | BKN042 OVC050 | 64.4 | 62.6 | 94% | 29.96 | 0.0 | |||||||
| 30 | 04:55 | SE 7 | 10.00 | Overcast | BKN048 OVC055 | 64.4 | 62.6 | 94% | 29.97 | 0.0 | |||||||
| 30 | 04:35 | SE 8 | 10.00 | Overcast | FEW046 BKN055 OVC070 | 64.4 | 62.6 | 94% | 29.97 | 0.0 | |||||||
| 30 | 04:15 | SE 9 | 10.00 | Overcast | BKN046 BKN050 OVC070 | 64.4 | 62.6 | 94% | 29.97 | 0.0 | |||||||
| 30 | 03:55 | SE 10 | 10.00 | Overcast | FEW050 OVC070 | 64.4 | 62.6 | 94% | 29.98 | 0.0 | |||||||
| 30 | 03:35 | SE 9 | 10.00 | Overcast | OVC070 | 64.4 | 62.6 | 94% | 29.98 | 0.0 | |||||||
| 30 | 03:15 | SE 10 | 10.00 | Overcast | OVC080 | 64.4 | 62.6 | 94% | 29.99 | 0.0 | |||||||
| Date | Time (edt) | Wind (mph) | Vis. (mi.) | Weather | Sky Cond. | Air | Dwpt | Max. | Min. | Relative Humidity | Wind Chill (°F) | Heat Index (°F) | altimeter (in) | sea level (mb) | 1 hr | 3 hr | 6 hr |
| 6 hour | |||||||||||||||||
| Temperature (ºF) | Pressure | Precipitation (in) | |||||||||||||||